createdAt,value
2022-10-30T00:00:31.921Z,0.97
2022-10-30T00:04:36.386Z,1.13
2022-10-30T00:08:44.244Z,1.20
2022-10-30T00:12:46.318Z,0.83
2022-10-30T00:16:48.406Z,0.90
2022-10-30T00:20:50.636Z,0.70
2022-10-30T00:25:20.073Z,1.00
2022-10-30T00:29:42.348Z,0.80
2022-10-30T00:34:10.111Z,1.00
2022-10-30T00:38:49.441Z,0.80
2022-10-30T00:43:40.336Z,1.17
2022-10-30T00:48:03.572Z,1.20
2022-10-30T00:52:09.229Z,0.90
2022-10-30T00:56:17.997Z,0.90
2022-10-30T01:00:24.662Z,1.50
2022-10-30T01:04:30.038Z,1.10
2022-10-30T01:08:33.535Z,0.80
2022-10-30T01:13:14.646Z,1.30
2022-10-30T01:24:00.838Z,0.97
2022-10-30T01:28:28.260Z,1.50
2022-10-30T01:33:04.050Z,1.03
2022-10-30T01:37:37.860Z,1.20
2022-10-30T01:41:45.605Z,1.20
2022-10-30T01:46:06.045Z,2.33
2022-10-30T01:50:58.747Z,1.20
2022-10-30T01:55:50.861Z,1.00
2022-10-30T02:00:16.387Z,1.87
2022-10-30T02:04:23.599Z,1.50
2022-10-30T02:08:28.918Z,1.33
2022-10-30T02:12:57.095Z,1.57
2022-10-30T02:17:04.327Z,1.23
2022-10-30T02:21:31.902Z,1.63
2022-10-30T02:25:33.874Z,1.60
2022-10-30T02:29:35.951Z,2.13
2022-10-30T02:33:38.057Z,1.67
2022-10-30T02:38:45.190Z,1.70
2022-10-30T02:42:56.137Z,1.00
2022-10-30T02:47:18.389Z,1.67
2022-10-30T02:51:20.507Z,1.30
2022-10-30T02:55:23.360Z,0.90
2022-10-30T03:04:51.107Z,1.30
2022-10-30T03:08:56.199Z,1.40
2022-10-30T03:13:02.670Z,1.23
2022-10-30T03:17:07.434Z,1.23
2022-10-30T03:21:21.844Z,1.33
2022-10-30T03:25:24.470Z,1.30
2022-10-30T03:29:31.647Z,1.07
2022-10-30T03:33:36.986Z,1.00
2022-10-30T03:37:39.879Z,1.00
2022-10-30T03:41:50.554Z,1.10
2022-10-30T03:45:55.165Z,0.77
2022-10-30T03:49:58.525Z,1.37
2022-10-30T03:54:03.284Z,1.07
2022-10-30T03:58:08.902Z,1.50
2022-10-30T04:06:33.067Z,1.10
2022-10-30T04:14:59.224Z,0.87
2022-10-30T04:19:03.896Z,0.80
2022-10-30T04:23:11.271Z,1.43
2022-10-30T04:27:18.273Z,1.13
2022-10-30T04:31:27.143Z,1.50
2022-10-30T04:35:38.986Z,1.43
2022-10-30T04:39:51.591Z,1.20
2022-10-30T04:44:00.296Z,0.90
2022-10-30T04:48:16.992Z,1.10
2022-10-30T04:52:21.063Z,0.97
2022-10-30T04:56:29.601Z,1.07
2022-10-30T05:00:32.583Z,1.27
2022-10-30T05:04:44.972Z,0.90
2022-10-30T05:13:24.730Z,0.90
2022-10-30T05:17:34.056Z,1.13
2022-10-30T05:21:39.888Z,1.07
2022-10-30T05:25:43.425Z,1.03
2022-10-30T05:29:50.961Z,0.90
2022-10-30T05:38:17.329Z,1.10
2022-10-30T05:42:27.458Z,1.17
2022-10-30T05:46:38.194Z,0.90
2022-10-30T05:55:26.748Z,1.30
2022-10-30T05:59:48.146Z,0.90
2022-10-30T06:03:54.082Z,0.90
2022-10-30T06:08:04.234Z,0.70
2022-10-30T06:12:10.836Z,1.03
2022-10-30T06:16:45.885Z,1.03
2022-10-30T06:21:13.908Z,1.20
2022-10-30T06:25:41.752Z,0.70
2022-10-30T06:29:53.510Z,0.83
2022-10-30T06:33:57.910Z,1.10
2022-10-30T06:38:01.893Z,1.23
2022-10-30T06:42:11.476Z,1.00
2022-10-30T06:46:28.843Z,1.57
2022-10-30T06:50:41.942Z,1.43
2022-10-30T06:54:45.172Z,0.93
2022-10-30T06:59:09.731Z,1.33
2022-10-30T07:03:30.002Z,1.03
2022-10-30T07:07:37.481Z,1.03
2022-10-30T07:11:46.360Z,0.90
2022-10-30T07:20:22.956Z,1.23
2022-10-30T07:24:34.590Z,1.53
2022-10-30T07:28:59.581Z,1.17
2022-10-30T07:33:16.916Z,1.40
2022-10-30T07:37:35.640Z,0.87
2022-10-30T07:41:48.887Z,1.30
2022-10-30T07:46:14.435Z,1.27
2022-10-30T07:50:38.815Z,1.70
2022-10-30T07:54:45.138Z,1.80
2022-10-30T07:59:20.405Z,1.30
2022-10-30T08:03:56.466Z,1.17
2022-10-30T08:08:06.249Z,1.93
2022-10-30T08:12:10.128Z,1.33
2022-10-30T08:16:14.983Z,1.50
2022-10-30T08:20:23.844Z,1.63
2022-10-30T08:24:27.284Z,1.27
2022-10-30T08:28:33.708Z,1.63
2022-10-30T08:32:45.918Z,1.87
2022-10-30T08:37:10.071Z,1.57
2022-10-30T08:41:13.708Z,1.40
2022-10-30T08:45:30.958Z,1.57
2022-10-30T08:49:44.109Z,1.50
2022-10-30T08:53:51.081Z,1.73
2022-10-30T08:57:58.798Z,1.70
2022-10-30T09:02:03.206Z,1.87
2022-10-30T09:06:44.173Z,1.37
2022-10-30T09:11:15.111Z,1.70
2022-10-30T09:15:21.042Z,2.03
2022-10-30T09:19:30.393Z,2.83
2022-10-30T09:23:35.935Z,2.63
2022-10-30T09:28:03.412Z,2.07
2022-10-30T09:36:45.253Z,2.00
2022-10-30T09:41:18.381Z,2.17
2022-10-30T09:46:08.762Z,2.37
2022-10-30T09:50:13.431Z,1.53
2022-10-30T09:54:39.186Z,2.10
2022-10-30T09:59:08.797Z,2.20
2022-10-30T10:03:36.056Z,3.23
2022-10-30T10:08:21.733Z,2.50
2022-10-30T10:12:58.710Z,2.30
2022-10-30T10:17:12.819Z,2.93
2022-10-30T10:21:43.433Z,2.77
2022-10-30T10:25:53.936Z,2.77
2022-10-30T10:30:00.009Z,2.40
2022-10-30T10:34:21.643Z,3.00
2022-10-30T10:39:00.316Z,2.87
2022-10-30T10:43:05.766Z,2.80
2022-10-30T10:47:11.083Z,2.87
2022-10-30T10:51:42.396Z,2.10
2022-10-30T10:55:50.333Z,2.07
2022-10-30T10:59:58.041Z,1.93
2022-10-30T11:04:09.132Z,2.53
2022-10-30T11:08:25.740Z,2.80
2022-10-30T11:12:37.474Z,2.10
2022-10-30T11:16:58.175Z,2.53
2022-10-30T11:21:04.746Z,1.93
2022-10-30T11:25:26.876Z,1.53
2022-10-30T11:29:32.389Z,1.93
2022-10-30T11:33:34.476Z,2.40
2022-10-30T11:37:41.376Z,1.80
2022-10-30T11:42:07.280Z,1.83
2022-10-30T11:46:12.427Z,2.03
2022-10-30T11:50:24.416Z,1.53
2022-10-30T11:54:27.863Z,1.77
2022-10-30T11:58:37.623Z,1.90
2022-10-30T12:02:46.157Z,2.17
2022-10-30T12:06:49.411Z,2.23
2022-10-30T12:11:01.764Z,1.70
2022-10-30T12:15:21.635Z,2.13
2022-10-30T12:19:25.944Z,1.70
2022-10-30T12:23:30.209Z,2.00
2022-10-30T12:27:37.092Z,2.17
2022-10-30T12:32:00.846Z,1.83
2022-10-30T12:36:28.434Z,1.80
2022-10-30T12:40:42.491Z,1.40
2022-10-30T12:44:50.927Z,1.10
2022-10-30T12:49:02.689Z,1.40
2022-10-30T12:53:42.847Z,1.63
2022-10-30T12:58:20.269Z,1.20
2022-10-30T13:02:33.779Z,1.47
2022-10-30T13:06:46.384Z,1.67
2022-10-30T13:10:56.936Z,1.93
2022-10-30T13:15:06.914Z,1.40
2022-10-30T13:19:13.810Z,1.40
2022-10-30T13:23:23.014Z,1.27
2022-10-30T13:27:52.549Z,1.53
2022-10-30T13:32:07.463Z,1.50
2022-10-30T13:36:21.033Z,1.20
2022-10-30T13:40:25.965Z,1.10
2022-10-30T13:44:51.628Z,1.40
2022-10-30T13:49:06.969Z,1.17
2022-10-30T13:53:27.697Z,1.27
2022-10-30T13:57:41.941Z,1.50
2022-10-30T14:02:03.903Z,1.50
2022-10-30T14:06:45.082Z,1.10
2022-10-30T14:10:53.403Z,1.80
2022-10-30T14:15:05.131Z,1.40
2022-10-30T14:19:20.147Z,1.20
2022-10-30T14:23:37.459Z,1.10
2022-10-30T14:27:39.876Z,1.50
2022-10-30T14:31:42.323Z,1.40
2022-10-30T14:35:49.114Z,1.30
2022-10-30T14:39:56.912Z,1.53
2022-10-30T14:44:20.093Z,1.30
2022-10-30T14:48:22.245Z,1.20
2022-10-30T14:52:50.592Z,1.50
2022-10-30T14:56:54.215Z,1.47
2022-10-30T15:01:18.265Z,1.20
2022-10-30T15:05:51.415Z,1.27
2022-10-30T15:10:08.925Z,1.30
2022-10-30T15:14:32.715Z,1.43
2022-10-30T15:18:48.061Z,1.23
2022-10-30T15:22:54.788Z,1.27
2022-10-30T15:27:02.079Z,1.13
2022-10-30T15:31:27.826Z,1.33
2022-10-30T15:35:30.048Z,1.60
2022-10-30T15:39:32.161Z,1.83
2022-10-30T15:43:38.143Z,1.93
2022-10-30T15:47:46.757Z,1.40
2022-10-30T15:51:52.314Z,1.30
2022-10-30T15:55:58.963Z,1.60
2022-10-30T16:00:08.077Z,1.50
2022-10-30T16:04:19.176Z,2.00
2022-10-30T16:08:23.993Z,2.20
2022-10-30T16:12:27.918Z,1.63
2022-10-30T16:16:31.839Z,1.77
2022-10-30T16:20:36.178Z,1.60
2022-10-30T16:24:41.570Z,2.40
2022-10-30T16:28:49.402Z,1.57
2022-10-30T16:32:54.793Z,1.80
2022-10-30T16:36:57.281Z,1.77
2022-10-30T16:40:59.352Z,1.83
2022-10-30T16:45:24.861Z,1.47
2022-10-30T16:49:30.814Z,1.97
2022-10-30T16:53:33.297Z,1.67
2022-10-30T16:57:38.530Z,1.63
2022-10-30T17:01:41.496Z,1.90
2022-10-30T17:05:43.977Z,2.00
2022-10-30T17:09:50.418Z,2.00
2022-10-30T17:13:53.620Z,2.07
2022-10-30T17:18:12.204Z,2.10
2022-10-30T17:22:20.822Z,1.67
2022-10-30T17:26:23.240Z,2.00
2022-10-30T17:30:37.054Z,2.10
2022-10-30T17:34:40.034Z,2.23
2022-10-30T17:38:42.055Z,1.70
2022-10-30T17:42:44.894Z,2.17
2022-10-30T17:46:47.632Z,1.97
2022-10-30T17:50:53.096Z,1.80
2022-10-30T17:54:55.645Z,1.80
2022-10-30T17:58:57.631Z,1.70
2022-10-30T18:03:01.930Z,1.53
2022-10-30T18:07:05.142Z,1.17
2022-10-30T18:11:15.214Z,1.90
2022-10-30T18:15:27.909Z,1.57
2022-10-30T18:19:30.352Z,1.37
2022-10-30T18:23:51.325Z,1.50
2022-10-30T18:27:54.971Z,1.40
2022-10-30T18:31:58.008Z,1.10
2022-10-30T18:36:02.065Z,1.53
2022-10-30T18:40:06.345Z,1.10
2022-10-30T18:44:09.997Z,1.50
2022-10-30T18:48:12.798Z,1.33
2022-10-30T18:52:15.671Z,1.23
2022-10-30T18:56:25.204Z,1.50
2022-10-30T19:00:39.738Z,1.23
2022-10-30T19:04:47.221Z,1.27
2022-10-30T19:08:50.332Z,1.07
2022-10-30T19:13:15.152Z,1.17
2022-10-30T19:17:18.838Z,1.33
2022-10-30T19:21:28.136Z,1.57
2022-10-30T19:25:35.925Z,1.10
2022-10-30T19:29:38.032Z,1.40
2022-10-30T19:33:40.395Z,1.03
2022-10-30T19:37:46.387Z,1.20
2022-10-30T19:41:48.489Z,1.20
2022-10-30T19:45:55.501Z,1.63
2022-10-30T19:49:57.996Z,1.60
2022-10-30T19:54:01.328Z,2.40
2022-10-30T19:58:04.832Z,2.30
2022-10-30T20:02:07.224Z,1.87
2022-10-30T20:06:14.274Z,1.40
2022-10-30T20:10:20.505Z,1.63
2022-10-30T20:14:24.177Z,2.13
2022-10-30T20:18:31.024Z,2.43
2022-10-30T20:22:35.237Z,1.87
2022-10-30T20:26:38.869Z,2.00
2022-10-30T20:30:40.941Z,2.03
2022-10-30T20:34:46.416Z,1.80
2022-10-30T20:38:49.781Z,1.63
2022-10-30T20:42:54.886Z,1.53
2022-10-30T20:47:01.565Z,1.40
2022-10-30T20:51:07.203Z,1.33
2022-10-30T20:55:11.133Z,1.27
2022-10-30T20:59:13.798Z,1.60
2022-10-30T21:03:16.435Z,1.50
2022-10-30T21:07:22.937Z,1.37
2022-10-30T21:11:25.975Z,1.30
2022-10-30T21:15:30.261Z,1.30
2022-10-30T21:19:32.751Z,1.20
2022-10-30T21:23:35.825Z,1.20
2022-10-30T21:27:39.573Z,1.40
2022-10-30T21:31:43.170Z,1.60
2022-10-30T21:35:47.022Z,1.20
2022-10-30T21:39:49.320Z,1.57
2022-10-30T21:43:56.906Z,1.20
2022-10-30T21:48:00.564Z,0.93
2022-10-30T21:52:05.000Z,1.20
2022-10-30T21:56:16.627Z,1.77
2022-10-30T22:00:21.023Z,2.30
2022-10-30T22:04:25.945Z,2.77
2022-10-30T22:08:30.246Z,2.50
2022-10-30T22:12:33.141Z,2.83
2022-10-30T22:16:40.484Z,1.93
2022-10-30T22:20:45.382Z,3.40
2022-10-30T22:24:55.891Z,2.97
2022-10-30T22:29:01.808Z,2.93
2022-10-30T22:33:04.518Z,2.70
2022-10-30T22:37:22.252Z,3.33
2022-10-30T22:41:25.206Z,2.50
2022-10-30T22:45:27.168Z,2.50
2022-10-30T22:49:29.091Z,2.73
2022-10-30T22:53:38.919Z,2.30
2022-10-30T22:57:40.906Z,2.43
2022-10-30T23:01:43.424Z,1.90
2022-10-30T23:05:59.550Z,2.30
2022-10-30T23:10:11.112Z,3.17
2022-10-30T23:14:13.261Z,2.57
2022-10-30T23:18:18.096Z,2.27
2022-10-30T23:22:20.439Z,2.90
2022-10-30T23:26:45.257Z,2.13
2022-10-30T23:30:47.655Z,3.10
2022-10-30T23:34:49.603Z,3.83
2022-10-30T23:38:56.753Z,3.27
2022-10-30T23:43:00.235Z,3.77
2022-10-30T23:47:29.135Z,3.90
2022-10-30T23:51:31.701Z,3.33
2022-10-30T23:55:33.666Z,1.80
2022-10-30T23:59:35.654Z,2.50
